Time,TemperatureF,DewpointF,PressureIn,WindDirection,WindDirectionDegrees,WindSpeedMPH,WindSpeedGustMPH,Humidity,HourlyPrecipIn,Conditions,Clouds,dailyrainin,SolarRadiationWatts/m^2,SoftwareType,DateUTC
2013-06-14 00:02:00,55.0,54.0,-100.00,NNE,24,9.0,22.0,96,0.07,,,0.98,0.000000,,2013-06-14 04:02:00,
2013-06-14 00:10:00,54.0,53.0,-100.00,NNE,18,10.0,23.0,97,0.09,,,1.07,0.000000,,2013-06-14 04:10:00,
2013-06-14 00:43:00,54.0,53.0,-100.00,NNE,18,10.0,23.0,97,0.09,,,1.07,0.000000,,2013-06-14 04:43:00,
2013-06-14 00:53:00,54.0,53.0,-100.00,NNE,18,10.0,23.0,97,0.09,,,1.07,0.000000,,2013-06-14 04:53:00,
2013-06-14 01:02:00,54.0,53.0,-100.00,NNE,18,10.0,23.0,97,0.09,,,1.07,0.000000,,2013-06-14 05:02:00,
2013-06-14 01:10:00,53.0,52.0,-100.00,NNE,20,11.0,20.0,96,0.02,,,1.09,0.000000,,2013-06-14 05:10:00,
2013-06-14 01:34:00,53.0,52.0,-100.00,NNE,20,11.0,20.0,96,0.02,,,1.09,0.000000,,2013-06-14 05:34:00,
2013-06-14 01:43:00,53.0,52.0,-100.00,NNE,20,11.0,20.0,96,0.02,,,1.09,0.000000,,2013-06-14 05:43:00,
2013-06-14 01:52:00,53.0,52.0,-100.00,NNE,20,11.0,20.0,96,0.02,,,1.09,0.000000,,2013-06-14 05:52:00,
2013-06-14 02:02:00,53.0,52.0,-100.00,NNE,20,11.0,20.0,96,0.02,,,1.09,0.000000,,2013-06-14 06:02:00,
2013-06-14 02:10:00,52.0,51.0,-100.00,North,4,8.0,16.0,96,0.03,,,1.12,0.000000,,2013-06-14 06:10:00,
2013-06-14 02:33:00,52.0,51.0,-100.00,North,4,8.0,16.0,96,0.03,,,1.12,0.000000,,2013-06-14 06:33:00,
2013-06-14 02:43:00,52.0,51.0,-100.00,North,4,8.0,16.0,96,0.03,,,1.12,0.000000,,2013-06-14 06:43:00,
2013-06-14 02:52:00,52.0,51.0,-100.00,North,4,8.0,16.0,96,0.03,,,1.12,0.000000,,2013-06-14 06:52:00,
2013-06-14 03:02:00,52.0,51.0,-100.00,North,4,8.0,16.0,96,0.03,,,1.12,0.000000,,2013-06-14 07:02:00,
2013-06-14 03:10:00,52.0,51.0,-100.00,North,353,11.0,20.0,97,0.05,,,1.17,0.000000,,2013-06-14 07:10:00,
2013-06-14 03:43:00,52.0,51.0,-100.00,North,353,11.0,20.0,97,0.05,,,1.17,0.000000,,2013-06-14 07:43:00,
2013-06-14 03:53:00,52.0,51.0,-100.00,North,353,11.0,20.0,97,0.05,,,1.17,0.000000,,2013-06-14 07:53:00,
2013-06-14 04:02:00,52.0,51.0,-100.00,North,353,11.0,20.0,97,0.05,,,1.17,0.000000,,2013-06-14 08:02:00,
2013-06-14 04:10:00,51.0,50.0,-100.00,North,3,13.0,22.0,95,0.00,,,1.17,0.000000,,2013-06-14 08:10:00,
2013-06-14 04:43:00,51.0,50.0,-100.00,North,3,13.0,22.0,95,0.00,,,1.17,0.000000,,2013-06-14 08:43:00,
2013-06-14 04:53:00,51.0,50.0,-100.00,North,3,13.0,22.0,95,0.00,,,1.17,0.000000,,2013-06-14 08:53:00,
2013-06-14 05:02:00,51.0,50.0,-100.00,North,3,13.0,22.0,95,0.00,,,1.17,0.000000,,2013-06-14 09:02:00,
2013-06-14 05:10:00,51.0,49.0,-100.00,North,358,10.0,23.0,93,0.00,,,1.16,0.000000,,2013-06-14 09:10:00,
2013-06-14 05:43:00,51.0,49.0,-100.00,North,358,10.0,23.0,93,0.00,,,1.16,0.000000,,2013-06-14 09:43:00,
2013-06-14 05:53:00,51.0,49.0,-100.00,North,358,10.0,23.0,93,0.00,,,1.16,0.000000,,2013-06-14 09:53:00,
2013-06-14 06:02:00,51.0,49.0,-100.00,North,358,10.0,23.0,93,0.00,,,1.16,0.000000,,2013-06-14 10:02:00,
2013-06-14 06:10:00,51.0,48.0,-100.00,NNE,15,12.0,19.0,91,0.00,,,1.14,9.000000,,2013-06-14 10:10:00,
2013-06-14 06:44:00,51.0,48.0,-100.00,NNE,15,12.0,19.0,91,0.00,,,1.14,9.000000,,2013-06-14 10:44:00,
2013-06-14 06:53:00,51.0,48.0,-100.00,NNE,15,12.0,19.0,91,0.00,,,1.14,9.000000,,2013-06-14 10:53:00,
2013-06-14 07:02:00,51.0,48.0,-100.00,NNE,15,12.0,19.0,91,0.00,,,1.14,9.000000,,2013-06-14 11:02:00,
2013-06-14 07:10:00,51.0,48.0,-100.00,North,359,10.0,21.0,88,0.00,,,1.12,57.000000,,2013-06-14 11:10:00,
2013-06-14 07:33:00,51.0,48.0,-100.00,North,359,10.0,21.0,88,0.00,,,1.12,57.000000,,2013-06-14 11:33:00,
2013-06-14 07:43:00,51.0,48.0,-100.00,North,359,10.0,21.0,88,0.00,,,1.12,57.000000,,2013-06-14 11:43:00,
2013-06-14 07:52:00,51.0,48.0,-100.00,North,359,10.0,21.0,88,0.00,,,1.12,57.000000,,2013-06-14 11:52:00,
2013-06-14 08:02:00,51.0,48.0,-100.00,North,359,10.0,21.0,88,0.00,,,1.12,57.000000,,2013-06-14 12:02:00,
2013-06-14 08:10:00,53.0,48.0,-100.00,North,358,9.0,20.0,84,0.00,,,1.11,115.000000,,2013-06-14 12:10:00,
2013-06-14 08:43:00,53.0,48.0,-100.00,North,358,9.0,20.0,84,0.00,,,1.11,115.000000,,2013-06-14 12:43:00,
2013-06-14 08:52:00,53.0,48.0,-100.00,North,358,9.0,20.0,84,0.00,,,1.11,115.000000,,2013-06-14 12:52:00,
2013-06-14 09:02:00,53.0,48.0,-100.00,North,358,9.0,20.0,84,0.00,,,1.11,115.000000,,2013-06-14 13:02:00,
2013-06-14 09:10:00,53.0,48.0,-100.00,NW,324,6.0,16.0,84,0.00,,,1.03,96.000000,,2013-06-14 13:10:00,
2013-06-14 09:43:00,53.0,48.0,-100.00,NW,324,6.0,16.0,84,0.00,,,1.03,96.000000,,2013-06-14 13:43:00,
2013-06-14 09:53:00,53.0,48.0,-100.00,NW,324,6.0,16.0,84,0.00,,,1.03,96.000000,,2013-06-14 13:53:00,
2013-06-14 10:02:00,53.0,48.0,-100.00,NW,324,6.0,16.0,84,0.00,,,1.03,96.000000,,2013-06-14 14:02:00,
2013-06-14 10:10:00,55.0,51.0,-100.00,NW,325,5.0,11.0,85,0.00,,,0.82,163.000000,,2013-06-14 14:10:00,
2013-06-14 10:43:00,55.0,51.0,-100.00,NW,325,5.0,11.0,85,0.00,,,0.82,163.000000,,2013-06-14 14:43:00,
2013-06-14 10:52:00,55.0,51.0,-100.00,NW,325,5.0,11.0,85,0.00,,,0.82,163.000000,,2013-06-14 14:52:00,
2013-06-14 11:02:00,55.0,51.0,-100.00,NW,325,5.0,11.0,85,0.00,,,0.82,163.000000,,2013-06-14 15:02:00,
2013-06-14 11:10:00,62.0,55.0,-100.00,NNW,332,5.0,10.0,79,0.00,,,0.57,441.000000,,2013-06-14 15:10:00,
2013-06-14 11:44:00,62.0,55.0,-100.00,NNW,332,5.0,10.0,79,0.00,,,0.57,441.000000,,2013-06-14 15:44:00,
2013-06-14 11:53:00,62.0,55.0,-100.00,NNW,332,5.0,10.0,79,0.00,,,0.57,441.000000,,2013-06-14 15:53:00,
2013-06-14 12:02:00,62.0,55.0,-100.00,NNW,332,5.0,10.0,79,0.00,,,0.57,441.000000,,2013-06-14 16:02:00,
2013-06-14 12:10:00,65.0,54.0,-100.00,West,278,6.0,14.0,67,0.00,,,0.57,1049.000000,,2013-06-14 16:10:00,
2013-06-14 12:43:00,65.0,54.0,-100.00,West,278,6.0,14.0,67,0.00,,,0.57,1049.000000,,2013-06-14 16:43:00,
2013-06-14 12:53:00,65.0,54.0,-100.00,West,278,6.0,14.0,67,0.00,,,0.57,1049.000000,,2013-06-14 16:53:00,
2013-06-14 13:02:00,65.0,54.0,-100.00,West,278,6.0,14.0,67,0.00,,,0.57,1049.000000,,2013-06-14 17:02:00,
2013-06-14 13:10:00,68.0,56.0,-100.00,WNW,287,6.0,14.0,66,0.00,,,0.57,1077.000000,,2013-06-14 17:10:00,
2013-06-14 13:34:00,68.0,56.0,-100.00,WNW,287,6.0,14.0,66,0.00,,,0.57,1077.000000,,2013-06-14 17:34:00,
2013-06-14 13:43:00,68.0,56.0,-100.00,WNW,287,6.0,14.0,66,0.00,,,0.57,1077.000000,,2013-06-14 17:43:00,
2013-06-14 13:54:00,68.0,56.0,-100.00,WNW,287,6.0,14.0,66,0.00,,,0.57,1077.000000,,2013-06-14 17:54:00,
2013-06-14 14:02:00,68.0,56.0,-100.00,WNW,287,6.0,14.0,66,0.00,,,0.57,1077.000000,,2013-06-14 18:02:00,
2013-06-14 14:10:00,70.0,55.0,-100.00,WNW,293,5.0,16.0,58,0.00,,,0.57,1021.000000,,2013-06-14 18:10:00,
2013-06-14 14:33:00,70.0,55.0,-100.00,WNW,293,5.0,16.0,58,0.00,,,0.57,1021.000000,,2013-06-14 18:33:00,
2013-06-14 14:43:00,70.0,55.0,-100.00,WNW,293,5.0,16.0,58,0.00,,,0.57,1021.000000,,2013-06-14 18:43:00,
2013-06-14 14:52:00,70.0,55.0,-100.00,WNW,293,5.0,16.0,58,0.00,,,0.57,1021.000000,,2013-06-14 18:52:00,
2013-06-14 15:01:00,70.0,55.0,-100.00,WNW,293,5.0,16.0,58,0.00,,,0.57,1021.000000,,2013-06-14 19:01:00,
2013-06-14 15:10:00,73.0,57.0,-100.00,NW,320,6.0,18.0,58,0.00,,,0.57,734.000000,,2013-06-14 19:10:00,
2013-06-14 15:43:00,73.0,57.0,-100.00,NW,320,6.0,18.0,58,0.00,,,0.57,734.000000,,2013-06-14 19:43:00,
2013-06-14 15:53:00,73.0,57.0,-100.00,NW,320,6.0,18.0,58,0.00,,,0.57,734.000000,,2013-06-14 19:53:00,
2013-06-14 16:02:00,73.0,57.0,-100.00,NW,320,6.0,18.0,58,0.00,,,0.57,734.000000,,2013-06-14 20:02:00,
2013-06-14 16:10:00,64.0,56.0,-100.00,WNW,300,3.0,20.0,74,0.12,,,0.69,366.000000,,2013-06-14 20:10:00,
2013-06-14 16:43:00,64.0,56.0,-100.00,WNW,300,3.0,20.0,74,0.12,,,0.69,366.000000,,2013-06-14 20:43:00,
2013-06-14 16:53:00,64.0,56.0,-100.00,WNW,300,3.0,20.0,74,0.12,,,0.69,366.000000,,2013-06-14 20:53:00,
2013-06-14 17:02:00,64.0,56.0,-100.00,WNW,300,3.0,20.0,74,0.12,,,0.69,366.000000,,2013-06-14 21:02:00,
2013-06-14 17:10:00,68.0,57.0,-100.00,NNE,21,6.0,26.0,69,0.00,,,0.69,567.000000,,2013-06-14 21:10:00,
2013-06-14 17:43:00,68.0,57.0,-100.00,NNE,21,6.0,26.0,69,0.00,,,0.69,567.000000,,2013-06-14 21:43:00,
2013-06-14 17:52:00,68.0,57.0,-100.00,NNE,21,6.0,26.0,69,0.00,,,0.69,567.000000,,2013-06-14 21:52:00,
2013-06-14 18:02:00,68.0,57.0,-100.00,NNE,21,6.0,26.0,69,0.00,,,0.69,567.000000,,2013-06-14 22:02:00,
2013-06-14 18:10:00,62.0,55.0,-100.00,NNE,28,10.0,22.0,78,-99.99,,,0.54,350.000000,,2013-06-14 22:10:00,
2013-06-14 18:33:00,62.0,55.0,-100.00,NNE,28,10.0,22.0,78,-99.99,,,0.54,350.000000,,2013-06-14 22:33:00,
2013-06-14 18:43:00,62.0,55.0,-100.00,NNE,28,10.0,22.0,78,-99.99,,,0.54,350.000000,,2013-06-14 22:43:00,
2013-06-14 18:53:00,62.0,55.0,-100.00,NNE,28,10.0,22.0,78,-99.99,,,0.54,350.000000,,2013-06-14 22:53:00,
2013-06-14 19:02:00,62.0,55.0,-100.00,NNE,28,10.0,22.0,78,-99.99,,,0.54,350.000000,,2013-06-14 23:02:00,
2013-06-14 19:10:00,59.0,56.0,-100.00,NNW,337,4.0,12.0,91,0.09,,,0.56,68.000000,,2013-06-14 23:10:00,
2013-06-14 19:33:00,59.0,56.0,-100.00,NNW,337,4.0,12.0,91,0.09,,,0.56,68.000000,,2013-06-14 23:33:00,
2013-06-14 19:43:00,59.0,56.0,-100.00,NNW,337,4.0,12.0,91,0.09,,,0.56,68.000000,,2013-06-14 23:43:00,
2013-06-14 19:52:00,59.0,56.0,-100.00,NNW,337,4.0,12.0,91,0.09,,,0.56,68.000000,,2013-06-14 23:52:00,
2013-06-14 20:02:00,59.0,56.0,-100.00,NNW,337,4.0,12.0,91,0.09,,,0.56,68.000000,,2013-06-15 00:02:00,
2013-06-14 21:10:00,58.0,54.0,-100.00,WNW,285,4.0,7.0,87,-99.99,,,0.56,5.000000,,2013-06-15 01:10:00,
2013-06-14 21:43:00,58.0,54.0,-100.00,WNW,285,4.0,7.0,87,-99.99,,,0.56,5.000000,,2013-06-15 01:43:00,
2013-06-14 21:54:00,58.0,54.0,-100.00,WNW,285,4.0,7.0,87,-99.99,,,0.56,5.000000,,2013-06-15 01:54:00,
2013-06-14 22:02:00,58.0,54.0,-100.00,WNW,285,4.0,7.0,87,-99.99,,,0.56,5.000000,,2013-06-15 02:02:00,
2013-06-14 22:10:00,58.0,54.0,-100.00,WNW,287,4.0,7.0,88,0.00,,,0.55,0.000000,,2013-06-15 02:10:00,
2013-06-14 22:43:00,58.0,54.0,-100.00,WNW,287,4.0,7.0,88,0.00,,,0.55,0.000000,,2013-06-15 02:43:00,
2013-06-14 22:53:00,58.0,54.0,-100.00,WNW,287,4.0,7.0,88,0.00,,,0.55,0.000000,,2013-06-15 02:53:00,
2013-06-14 23:01:00,58.0,54.0,-100.00,WNW,287,4.0,7.0,88,0.00,,,0.55,0.000000,,2013-06-15 03:01:00,
2013-06-14 23:10:00,58.0,54.0,-100.00,West,280,5.0,8.0,88,0.00,,,0.48,0.000000,,2013-06-15 03:10:00,
2013-06-14 23:44:00,58.0,54.0,-100.00,West,280,5.0,8.0,88,0.00,,,0.48,0.000000,,2013-06-15 03:44:00,
2013-06-14 23:53:00,58.0,54.0,-100.00,West,280,5.0,8.0,88,0.00,,,0.48,0.000000,,2013-06-15 03:53:00,